sensor_id;sensor_type;location;lat;lon;timestamp;pressure;altitude;pressure_sealevel;temperature;humidity
40650;BME280;26342;42.826;23.992;2023-04-01T00:00:07;94461.53;;;9.05;100.00
40650;BME280;26342;42.826;23.992;2023-04-01T00:02:34;94456.22;;;9.05;100.00
40650;BME280;26342;42.826;23.992;2023-04-01T00:05:00;94451.69;;;9.11;100.00
40650;BME280;26342;42.826;23.992;2023-04-01T00:07:26;94463.88;;;9.27;100.00
40650;BME280;26342;42.826;23.992;2023-04-01T00:09:52;94453.47;;;9.36;100.00
40650;BME280;26342;42.826;23.992;2023-04-01T00:12:17;94452.69;;;9.35;100.00
40650;BME280;26342;42.826;23.992;2023-04-01T00:14:43;94453.19;;;9.37;100.00
40650;BME280;26342;42.826;23.992;2023-04-01T00:17:08;94445.47;;;9.41;100.00
40650;BME280;26342;42.826;23.992;2023-04-01T00:19:34;94451.31;;;9.48;100.00
40650;BME280;26342;42.826;23.992;2023-04-01T00:21:59;94454.44;;;9.60;100.00
40650;BME280;26342;42.826;23.992;2023-04-01T00:24:24;94453.38;;;9.66;100.00
40650;BME280;26342;42.826;23.992;2023-04-01T00:26:50;94433.66;;;9.62;100.00
40650;BME280;26342;42.826;23.992;2023-04-01T00:29:15;94430.66;;;9.79;100.00
40650;BME280;26342;42.826;23.992;2023-04-01T00:31:41;94433.22;;;9.94;98.60
40650;BME280;26342;42.826;23.992;2023-04-01T00:34:06;94442.28;;;10.03;92.55
40650;BME280;26342;42.826;23.992;2023-04-01T00:36:32;94451.75;;;10.20;93.08
40650;BME280;26342;42.826;23.992;2023-04-01T00:38:57;94434.94;;;10.24;93.91
40650;BME280;26342;42.826;23.992;2023-04-01T00:41:24;94415.50;;;10.24;90.34
40650;BME280;26342;42.826;23.992;2023-04-01T00:43:52;94430.81;;;10.42;85.01
40650;BME280;26342;42.826;23.992;2023-04-01T00:46:18;94426.03;;;10.44;86.64
40650;BME280;26342;42.826;23.992;2023-04-01T00:48:50;94428.91;;;10.48;87.96
40650;BME280;26342;42.826;23.992;2023-04-01T00:51:29;94411.53;;;10.84;78.70
40650;BME280;26342;42.826;23.992;2023-04-01T00:53:56;94409.59;;;10.90;81.51
40650;BME280;26342;42.826;23.992;2023-04-01T00:56:31;94408.44;;;11.01;76.27
40650;BME280;26342;42.826;23.992;2023-04-01T00:59:01;94383.47;;;11.16;72.76
40650;BME280;26342;42.826;23.992;2023-04-01T01:01:29;94409.66;;;11.38;71.53
40650;BME280;26342;42.826;23.992;2023-04-01T01:03:55;94398.41;;;11.41;70.51
40650;BME280;26342;42.826;23.992;2023-04-01T01:17:29;94388.53;;;11.60;70.96
40650;BME280;26342;42.826;23.992;2023-04-01T01:33:44;94368.59;;;11.95;67.98
40650;BME280;26342;42.826;23.992;2023-04-01T01:36:16;94371.63;;;11.89;68.37
40650;BME280;26342;42.826;23.992;2023-04-01T01:38:44;94373.00;;;11.86;68.71
40650;BME280;26342;42.826;23.992;2023-04-01T01:41:12;94370.88;;;11.83;69.63
40650;BME280;26342;42.826;23.992;2023-04-01T01:43:43;94362.88;;;11.83;70.08
40650;BME280;26342;42.826;23.992;2023-04-01T01:46:14;94371.78;;;11.73;72.54
40650;BME280;26342;42.826;23.992;2023-04-01T01:48:42;94374.03;;;11.66;72.85
40650;BME280;26342;42.826;23.992;2023-04-01T01:51:09;94357.56;;;11.59;74.06
40650;BME280;26342;42.826;23.992;2023-04-01T01:53:35;94363.69;;;11.60;74.51
40650;BME280;26342;42.826;23.992;2023-04-01T01:56:00;94354.88;;;11.59;75.21
40650;BME280;26342;42.826;23.992;2023-04-01T01:58:33;94355.13;;;11.63;73.76
40650;BME280;26342;42.826;23.992;2023-04-01T02:01:09;94352.94;;;11.65;73.67
40650;BME280;26342;42.826;23.992;2023-04-01T02:03:39;94353.09;;;11.73;73.02
40650;BME280;26342;42.826;23.992;2023-04-01T02:06:13;94336.47;;;11.77;75.47
40650;BME280;26342;42.826;23.992;2023-04-01T02:08:42;94341.09;;;11.71;73.75
40650;BME280;26342;42.826;23.992;2023-04-01T02:11:12;94349.69;;;11.68;71.68
40650;BME280;26342;42.826;23.992;2023-04-01T02:14:13;94348.03;;;11.72;71.31
40650;BME280;26342;42.826;23.992;2023-04-01T02:16:55;94329.88;;;11.69;70.70
40650;BME280;26342;42.826;23.992;2023-04-01T02:19:26;94321.38;;;11.67;71.39
40650;BME280;26342;42.826;23.992;2023-04-01T02:21:57;94322.59;;;11.74;71.67
40650;BME280;26342;42.826;23.992;2023-04-01T02:24:26;94307.72;;;11.68;72.00
40650;BME280;26342;42.826;23.992;2023-04-01T02:26:55;94297.41;;;11.62;68.98
40650;BME280;26342;42.826;23.992;2023-04-01T02:29:24;94306.13;;;11.67;68.30
40650;BME280;26342;42.826;23.992;2023-04-01T02:31:53;94301.81;;;11.71;67.48
40650;BME280;26342;42.826;23.992;2023-04-01T02:34:21;94288.03;;;11.83;65.60
40650;BME280;26342;42.826;23.992;2023-04-01T02:36:49;94286.28;;;11.92;62.06
40650;BME280;26342;42.826;23.992;2023-04-01T02:39:15;94285.13;;;11.98;63.65
40650;BME280;26342;42.826;23.992;2023-04-01T02:41:42;94288.81;;;12.02;65.68
40650;BME280;26342;42.826;23.992;2023-04-01T02:44:10;94281.34;;;11.99;67.30
40650;BME280;26342;42.826;23.992;2023-04-01T02:46:36;94287.09;;;11.93;66.39
40650;BME280;26342;42.826;23.992;2023-04-01T02:49:01;94290.84;;;11.92;67.92
40650;BME280;26342;42.826;23.992;2023-04-01T02:51:27;94285.78;;;11.90;64.87
40650;BME280;26342;42.826;23.992;2023-04-01T02:53:52;94282.03;;;11.91;65.38
40650;BME280;26342;42.826;23.992;2023-04-01T02:56:17;94283.59;;;11.92;66.57
40650;BME280;26342;42.826;23.992;2023-04-01T02:58:44;94290.97;;;12.00;65.66
40650;BME280;26342;42.826;23.992;2023-04-01T03:01:10;94279.88;;;11.93;66.37
40650;BME280;26342;42.826;23.992;2023-04-01T03:03:35;94282.91;;;11.87;68.19
40650;BME280;26342;42.826;23.992;2023-04-01T03:06:09;94292.09;;;11.81;69.40
40650;BME280;26342;42.826;23.992;2023-04-01T03:08:35;94285.97;;;11.75;68.90
40650;BME280;26342;42.826;23.992;2023-04-01T03:11:00;94287.47;;;11.86;68.34
40650;BME280;26342;42.826;23.992;2023-04-01T03:13:26;94289.13;;;11.82;68.53
40650;BME280;26342;42.826;23.992;2023-04-01T03:15:51;94297.50;;;11.94;67.86
40650;BME280;26342;42.826;23.992;2023-04-01T03:18:17;94296.19;;;11.92;68.05
40650;BME280;26342;42.826;23.992;2023-04-01T03:20:43;94294.88;;;11.89;68.06
40650;BME280;26342;42.826;23.992;2023-04-01T03:23:08;94290.63;;;11.88;67.28
40650;BME280;26342;42.826;23.992;2023-04-01T03:25:34;94281.66;;;11.79;67.01
40650;BME280;26342;42.826;23.992;2023-04-01T03:27:59;94292.41;;;11.74;69.00
40650;BME280;26342;42.826;23.992;2023-04-01T03:30:26;94289.59;;;11.65;69.84
40650;BME280;26342;42.826;23.992;2023-04-01T03:32:52;94295.97;;;11.69;67.52
40650;BME280;26342;42.826;23.992;2023-04-01T03:35:17;94284.31;;;11.60;67.19
40650;BME280;26342;42.826;23.992;2023-04-01T03:37:43;94279.50;;;11.62;67.18
40650;BME280;26342;42.826;23.992;2023-04-01T03:40:09;94282.69;;;11.45;70.89
40650;BME280;26342;42.826;23.992;2023-04-01T03:42:35;94288.44;;;11.34;71.11
40650;BME280;26342;42.826;23.992;2023-04-01T03:45:00;94279.00;;;11.41;70.00
40650;BME280;26342;42.826;23.992;2023-04-01T03:47:26;94298.19;;;11.43;71.75
40650;BME280;26342;42.826;23.992;2023-04-01T03:49:51;94287.59;;;11.57;67.16
40650;BME280;26342;42.826;23.992;2023-04-01T03:52:17;94285.56;;;11.68;65.39
40650;BME280;26342;42.826;23.992;2023-04-01T03:54:42;94281.09;;;11.63;65.54
40650;BME280;26342;42.826;23.992;2023-04-01T03:57:08;94281.28;;;11.67;66.38
40650;BME280;26342;42.826;23.992;2023-04-01T03:59:33;94294.59;;;11.72;64.82
40650;BME280;26342;42.826;23.992;2023-04-01T04:01:59;94289.44;;;11.75;63.50
40650;BME280;26342;42.826;23.992;2023-04-01T04:04:25;94288.31;;;11.82;63.90
40650;BME280;26342;42.826;23.992;2023-04-01T04:06:51;94283.22;;;11.85;62.80
40650;BME280;26342;42.826;23.992;2023-04-01T04:09:17;94288.94;;;11.92;62.18
40650;BME280;26342;42.826;23.992;2023-04-01T04:11:42;94284.44;;;11.93;63.32
40650;BME280;26342;42.826;23.992;2023-04-01T04:14:08;94283.47;;;12.02;59.96
40650;BME280;26342;42.826;23.992;2023-04-01T04:16:35;94285.25;;;12.07;60.35
40650;BME280;26342;42.826;23.992;2023-04-01T04:19:02;94279.91;;;12.07;59.02
40650;BME280;26342;42.826;23.992;2023-04-01T04:21:27;94284.81;;;12.19;58.61
40650;BME280;26342;42.826;23.992;2023-04-01T04:23:53;94277.16;;;12.12;56.04
40650;BME280;26342;42.826;23.992;2023-04-01T04:26:19;94275.22;;;12.32;56.19
40650;BME280;26342;42.826;23.992;2023-04-01T04:28:44;94276.09;;;12.27;58.96
40650;BME280;26342;42.826;23.992;2023-04-01T04:31:10;94286.69;;;12.18;60.69
40650;BME280;26342;42.826;23.992;2023-04-01T04:33:36;94278.56;;;12.23;59.04
40650;BME280;26342;42.826;23.992;2023-04-01T04:36:03;94273.50;;;12.22;57.48
40650;BME280;26342;42.826;23.992;2023-04-01T04:38:29;94269.56;;;12.19;56.52
40650;BME280;26342;42.826;23.992;2023-04-01T04:40:55;94275.06;;;12.42;53.94
40650;BME280;26342;42.826;23.992;2023-04-01T04:43:21;94273.59;;;12.49;53.50
40650;BME280;26342;42.826;23.992;2023-04-01T04:45:46;94263.97;;;12.48;53.88
40650;BME280;26342;42.826;23.992;2023-04-01T04:48:13;94255.84;;;12.53;51.82
40650;BME280;26342;42.826;23.992;2023-04-01T04:50:43;94244.25;;;12.58;50.69
40650;BME280;26342;42.826;23.992;2023-04-01T04:53:10;94223.25;;;12.65;50.90
40650;BME280;26342;42.826;23.992;2023-04-01T04:55:35;94219.47;;;12.66;54.19
40650;BME280;26342;42.826;23.992;2023-04-01T04:58:01;94217.50;;;12.58;54.79
40650;BME280;26342;42.826;23.992;2023-04-01T05:00:26;94215.78;;;12.62;55.88
40650;BME280;26342;42.826;23.992;2023-04-01T05:02:52;94226.81;;;12.61;56.33
40650;BME280;26342;42.826;23.992;2023-04-01T05:05:17;94214.81;;;12.58;56.31
40650;BME280;26342;42.826;23.992;2023-04-01T05:07:43;94210.75;;;12.61;57.00
40650;BME280;26342;42.826;23.992;2023-04-01T05:10:08;94206.69;;;12.63;56.18
40650;BME280;26342;42.826;23.992;2023-04-01T05:12:34;94196.97;;;12.67;56.70
40650;BME280;26342;42.826;23.992;2023-04-01T05:15:05;94188.53;;;12.60;57.64
40650;BME280;26342;42.826;23.992;2023-04-01T05:17:30;94184.88;;;12.70;55.85
40650;BME280;26342;42.826;23.992;2023-04-01T05:19:56;94183.81;;;12.57;57.77
40650;BME280;26342;42.826;23.992;2023-04-01T05:22:22;94191.03;;;12.56;58.92
40650;BME280;26342;42.826;23.992;2023-04-01T05:24:47;94179.53;;;12.56;58.83
40650;BME280;26342;42.826;23.992;2023-04-01T05:27:13;94179.72;;;12.60;58.06
40650;BME280;26342;42.826;23.992;2023-04-01T05:29:38;94165.47;;;12.50;58.13
40650;BME280;26342;42.826;23.992;2023-04-01T05:32:03;94156.44;;;12.60;56.57
40650;BME280;26342;42.826;23.992;2023-04-01T05:34:29;94152.28;;;12.40;60.51
40650;BME280;26342;42.826;23.992;2023-04-01T05:36:54;94156.25;;;12.43;59.23
40650;BME280;26342;42.826;23.992;2023-04-01T05:39:20;94136.22;;;12.54;59.23
40650;BME280;26342;42.826;23.992;2023-04-01T05:41:45;94130.59;;;12.42;58.14
40650;BME280;26342;42.826;23.992;2023-04-01T05:44:11;94126.34;;;12.41;58.54
40650;BME280;26342;42.826;23.992;2023-04-01T05:46:37;94123.94;;;12.39;59.68
40650;BME280;26342;42.826;23.992;2023-04-01T05:49:03;94119.69;;;12.38;58.43
40650;BME280;26342;42.826;23.992;2023-04-01T05:51:28;94106.81;;;12.40;58.98
40650;BME280;26342;42.826;23.992;2023-04-01T05:53:53;94112.13;;;12.54;59.16
40650;BME280;26342;42.826;23.992;2023-04-01T05:56:19;94099.75;;;12.58;58.66
40650;BME280;26342;42.826;23.992;2023-04-01T05:58:47;94098.75;;;12.68;58.60
40650;BME280;26342;42.826;23.992;2023-04-01T06:01:15;94084.78;;;12.57;58.06
40650;BME280;26342;42.826;23.992;2023-04-01T06:03:41;94089.31;;;12.70;57.32
40650;BME280;26342;42.826;23.992;2023-04-01T06:06:14;94088.59;;;12.78;57.07
40650;BME280;26342;42.826;23.992;2023-04-01T06:08:41;94080.38;;;12.75;56.96
40650;BME280;26342;42.826;23.992;2023-04-01T06:11:22;94109.44;;;12.81;56.74
40650;BME280;26342;42.826;23.992;2023-04-01T06:23:23;94116.00;;;13.34;54.50
40650;BME280;26342;42.826;23.992;2023-04-01T06:31:05;94087.84;;;13.59;51.79
40650;BME280;26342;42.826;23.992;2023-04-01T06:33:48;94086.00;;;13.68;53.45
40650;BME280;26342;42.826;23.992;2023-04-01T06:36:44;94098.50;;;13.81;51.34
40650;BME280;26342;42.826;23.992;2023-04-01T06:47:21;94083.69;;;14.15;51.22
40650;BME280;26342;42.826;23.992;2023-04-01T06:57:48;94094.88;;;14.48;48.96
40650;BME280;26342;42.826;23.992;2023-04-01T07:00:34;94091.41;;;14.56;47.71
40650;BME280;26342;42.826;23.992;2023-04-01T07:05:30;94085.41;;;14.68;47.84
40650;BME280;26342;42.826;23.992;2023-04-01T07:07:58;94090.97;;;14.80;46.98
40650;BME280;26342;42.826;23.992;2023-04-01T07:10:53;94087.66;;;15.00;49.45
40650;BME280;26342;42.826;23.992;2023-04-01T07:13:31;94080.91;;;15.03;44.79
40650;BME280;26342;42.826;23.992;2023-04-01T07:16:05;94077.56;;;15.15;45.48
40650;BME280;26342;42.826;23.992;2023-04-01T07:21:26;94057.16;;;15.31;45.79
40650;BME280;26342;42.826;23.992;2023-04-01T07:23:57;94060.00;;;15.52;45.39
40650;BME280;26342;42.826;23.992;2023-04-01T07:26:25;94055.88;;;15.54;44.29
40650;BME280;26342;42.826;23.992;2023-04-01T07:28:52;94055.88;;;15.63;41.43
40650;BME280;26342;42.826;23.992;2023-04-01T07:34:12;94042.88;;;15.82;41.46
40650;BME280;26342;42.826;23.992;2023-04-01T07:48:03;94032.44;;;16.10;41.53
40650;BME280;26342;42.826;23.992;2023-04-01T07:50:37;94020.22;;;16.22;41.20
40650;BME280;26342;42.826;23.992;2023-04-01T07:53:27;94030.19;;;16.21;39.45
40650;BME280;26342;42.826;23.992;2023-04-01T07:56:10;94020.69;;;16.24;41.14
40650;BME280;26342;42.826;23.992;2023-04-01T08:07:03;93987.34;;;17.08;37.97
40650;BME280;26342;42.826;23.992;2023-04-01T08:09:35;93992.31;;;16.97;38.52
40650;BME280;26342;42.826;23.992;2023-04-01T08:12:27;93998.97;;;17.00;38.81
40650;BME280;26342;42.826;23.992;2023-04-01T08:23:14;93990.09;;;17.33;38.41
40650;BME280;26342;42.826;23.992;2023-04-01T08:25:49;93984.72;;;17.33;39.53
40650;BME280;26342;42.826;23.992;2023-04-01T08:28:36;93987.19;;;17.38;39.57
40650;BME280;26342;42.826;23.992;2023-04-01T08:31:18;93970.31;;;17.28;38.04
40650;BME280;26342;42.826;23.992;2023-04-01T08:33:46;93986.63;;;17.32;37.79
40650;BME280;26342;42.826;23.992;2023-04-01T08:36:22;93986.63;;;17.32;38.92
40650;BME280;26342;42.826;23.992;2023-04-01T08:46:56;94000.50;;;18.25;37.14
40650;BME280;26342;42.826;23.992;2023-04-01T08:55:22;93968.22;;;19.21;34.22
40650;BME280;26342;42.826;23.992;2023-04-01T08:58:11;93968.28;;;19.37;33.89
40650;BME280;26342;42.826;23.992;2023-04-01T09:15:42;93935.94;;;21.28;31.95
40650;BME280;26342;42.826;23.992;2023-04-01T09:20:58;93911.97;;;21.99;30.28
40650;BME280;26342;42.826;23.992;2023-04-01T09:39:35;93924.28;;;20.89;29.27
40650;BME280;26342;42.826;23.992;2023-04-01T09:44:58;93923.25;;;20.23;30.29
40650;BME280;26342;42.826;23.992;2023-04-01T09:50:31;93913.94;;;20.56;30.31
40650;BME280;26342;42.826;23.992;2023-04-01T10:14:56;93891.09;;;19.27;31.55
40650;BME280;26342;42.826;23.992;2023-04-01T10:35:02;93861.91;;;18.61;33.51
40650;BME280;26342;42.826;23.992;2023-04-01T10:37:56;93856.72;;;18.56;34.27
40650;BME280;26342;42.826;23.992;2023-04-01T10:48:41;93856.81;;;18.31;34.59
40650;BME280;26342;42.826;23.992;2023-04-01T11:14:09;93816.38;;;18.07;35.83
40650;BME280;26342;42.826;23.992;2023-04-01T11:28:12;93789.84;;;18.09;35.60
40650;BME280;26342;42.826;23.992;2023-04-01T11:33:57;93789.84;;;18.37;37.60
40650;BME280;26342;42.826;23.992;2023-04-01T11:39:24;93776.19;;;18.46;36.10
40650;BME280;26342;42.826;23.992;2023-04-01T11:42:20;93776.19;;;18.46;35.80
40650;BME280;26342;42.826;23.992;2023-04-01T11:45:12;93762.84;;;18.37;36.42
40650;BME280;26342;42.826;23.992;2023-04-01T11:47:55;93763.44;;;18.58;36.06
40650;BME280;26342;42.826;23.992;2023-04-01T11:50:27;93766.13;;;18.58;36.01
40650;BME280;26342;42.826;23.992;2023-04-01T11:58:56;93753.63;;;18.10;40.74
40650;BME280;26342;42.826;23.992;2023-04-01T12:07:25;93766.66;;;17.55;41.31
40650;BME280;26342;42.826;23.992;2023-04-01T12:12:37;93782.84;;;17.31;43.37
40650;BME280;26342;42.826;23.992;2023-04-01T12:15:20;93790.25;;;17.10;43.91
40650;BME280;26342;42.826;23.992;2023-04-01T12:20:26;93844.00;;;16.94;45.14
40650;BME280;26342;42.826;23.992;2023-04-01T12:23:03;93865.50;;;16.82;44.91
40650;BME280;26342;42.826;23.992;2023-04-01T12:28:10;93929.34;;;16.18;51.62
40650;BME280;26342;42.826;23.992;2023-04-01T12:55:43;94123.31;;;12.70;100.00
40650;BME280;26342;42.826;23.992;2023-04-01T13:01:15;94124.47;;;12.91;100.00
40650;BME280;26342;42.826;23.992;2023-04-01T13:20:12;94060.16;;;13.50;100.00
40650;BME280;26342;42.826;23.992;2023-04-01T13:28:58;94062.81;;;14.12;100.00
40650;BME280;26342;42.826;23.992;2023-04-01T13:31:50;94075.44;;;14.11;100.00
40650;BME280;26342;42.826;23.992;2023-04-01T13:40:29;94029.38;;;13.69;100.00
40650;BME280;26342;42.826;23.992;2023-04-01T14:04:34;93925.22;;;12.02;100.00
40650;BME280;26342;42.826;23.992;2023-04-01T14:12:58;93904.88;;;12.38;100.00
40650;BME280;26342;42.826;23.992;2023-04-01T14:27:19;93873.56;;;12.83;100.00
40650;BME280;26342;42.826;23.992;2023-04-01T14:30:19;93887.34;;;12.99;100.00
40650;BME280;26342;42.826;23.992;2023-04-01T14:33:20;93879.47;;;13.02;100.00
40650;BME280;26342;42.826;23.992;2023-04-01T14:49:35;93853.13;;;13.27;100.00
40650;BME280;26342;42.826;23.992;2023-04-01T14:52:11;93844.63;;;13.33;100.00
40650;BME280;26342;42.826;23.992;2023-04-01T14:54:42;93843.06;;;13.32;100.00
40650;BME280;26342;42.826;23.992;2023-04-01T14:57:27;93835.63;;;13.21;100.00
40650;BME280;26342;42.826;23.992;2023-04-01T15:00:13;93833.22;;;13.19;100.00
40650;BME280;26342;42.826;23.992;2023-04-01T15:02:45;93828.00;;;13.14;100.00
40650;BME280;26342;42.826;23.992;2023-04-01T15:19:41;93804.38;;;13.16;100.00
40650;BME280;26342;42.826;23.992;2023-04-01T15:25:37;93830.81;;;13.09;100.00
40650;BME280;26342;42.826;23.992;2023-04-01T15:33:29;93852.56;;;13.07;100.00
40650;BME280;26342;42.826;23.992;2023-04-01T15:39:05;93875.91;;;13.16;100.00
40650;BME280;26342;42.826;23.992;2023-04-01T15:47:01;93878.50;;;13.21;100.00
40650;BME280;26342;42.826;23.992;2023-04-01T15:49:36;93877.97;;;13.19;100.00
40650;BME280;26342;42.826;23.992;2023-04-01T16:17:05;93909.09;;;12.75;100.00
40650;BME280;26342;42.826;23.992;2023-04-01T16:19:51;93898.53;;;12.78;100.00
40650;BME280;26342;42.826;23.992;2023-04-01T16:27:27;93873.94;;;12.45;100.00
40650;BME280;26342;42.826;23.992;2023-04-01T16:30:10;93893.94;;;12.48;100.00
40650;BME280;26342;42.826;23.992;2023-04-01T16:32:54;93935.06;;;12.52;100.00
40650;BME280;26342;42.826;23.992;2023-04-01T16:42:53;94111.44;;;11.47;100.00
40650;BME280;26342;42.826;23.992;2023-04-01T16:45:39;94096.09;;;11.20;100.00
40650;BME280;26342;42.826;23.992;2023-04-01T16:48:21;94121.22;;;10.81;100.00
40650;BME280;26342;42.826;23.992;2023-04-01T16:51:04;94120.28;;;10.72;100.00
40650;BME280;26342;42.826;23.992;2023-04-01T16:53:42;94125.97;;;10.66;100.00
40650;BME280;26342;42.826;23.992;2023-04-01T17:04:14;94134.06;;;10.13;100.00
40650;BME280;26342;42.826;23.992;2023-04-01T17:15:32;94090.66;;;10.07;100.00
40650;BME280;26342;42.826;23.992;2023-04-01T17:18:14;94093.34;;;10.07;100.00
40650;BME280;26342;42.826;23.992;2023-04-01T17:21:10;94097.81;;;10.12;100.00
40650;BME280;26342;42.826;23.992;2023-04-01T17:23:49;94093.13;;;10.27;100.00
40650;BME280;26342;42.826;23.992;2023-04-01T17:26:39;94087.22;;;10.30;100.00
40650;BME280;26342;42.826;23.992;2023-04-01T17:29:23;94098.69;;;10.31;100.00
40650;BME280;26342;42.826;23.992;2023-04-01T17:31:54;94096.84;;;10.26;100.00
40650;BME280;26342;42.826;23.992;2023-04-01T17:39:47;94113.81;;;10.12;100.00
40650;BME280;26342;42.826;23.992;2023-04-01T17:45:10;94125.19;;;9.93;100.00
40650;BME280;26342;42.826;23.992;2023-04-01T17:50:51;94157.63;;;9.42;100.00
40650;BME280;26342;42.826;23.992;2023-04-01T17:53:44;94152.47;;;9.22;100.00
40650;BME280;26342;42.826;23.992;2023-04-01T18:01:40;94156.38;;;8.95;100.00
40650;BME280;26342;42.826;23.992;2023-04-01T18:06:52;94158.97;;;9.06;100.00
40650;BME280;26342;42.826;23.992;2023-04-01T18:15:33;94158.06;;;9.20;100.00
40650;BME280;26342;42.826;23.992;2023-04-01T18:23:57;94161.06;;;8.64;100.00
40650;BME280;26342;42.826;23.992;2023-04-01T18:26:34;94154.25;;;8.48;100.00
40650;BME280;26342;42.826;23.992;2023-04-01T18:31:48;94164.09;;;8.32;100.00
40650;BME280;26342;42.826;23.992;2023-04-01T18:37:41;94181.38;;;8.40;100.00
40650;BME280;26342;42.826;23.992;2023-04-01T18:45:46;94223.88;;;8.55;100.00
40650;BME280;26342;42.826;23.992;2023-04-01T18:48:44;94231.31;;;8.53;100.00
40650;BME280;26342;42.826;23.992;2023-04-01T18:54:26;94188.53;;;8.34;100.00
40650;BME280;26342;42.826;23.992;2023-04-01T18:57:15;94214.03;;;8.51;100.00
40650;BME280;26342;42.826;23.992;2023-04-01T18:59:55;94204.50;;;8.39;100.00
40650;BME280;26342;42.826;23.992;2023-04-01T19:02:38;94226.31;;;8.42;100.00
40650;BME280;26342;42.826;23.992;2023-04-01T19:05:12;94251.56;;;8.39;100.00
40650;BME280;26342;42.826;23.992;2023-04-01T19:08:56;94260.84;;;8.36;100.00
40650;BME280;26342;42.826;23.992;2023-04-01T19:13:33;94261.09;;;8.55;100.00
40650;BME280;26342;42.826;23.992;2023-04-01T19:19:21;94259.75;;;8.63;100.00
40650;BME280;26342;42.826;23.992;2023-04-01T19:25:09;94267.50;;;8.44;100.00
40650;BME280;26342;42.826;23.992;2023-04-01T19:27:42;94279.47;;;8.47;100.00
40650;BME280;26342;42.826;23.992;2023-04-01T19:30:28;94282.91;;;8.42;100.00
40650;BME280;26342;42.826;23.992;2023-04-01T19:33:15;94284.00;;;8.46;100.00
40650;BME280;26342;42.826;23.992;2023-04-01T19:35:49;94275.78;;;8.37;100.00
40650;BME280;26342;42.826;23.992;2023-04-01T19:41:54;94272.00;;;8.28;100.00
40650;BME280;26342;42.826;23.992;2023-04-01T19:44:38;94285.84;;;8.41;100.00
40650;BME280;26342;42.826;23.992;2023-04-01T19:50:47;94296.97;;;8.53;100.00
40650;BME280;26342;42.826;23.992;2023-04-01T19:52:54;94293.28;;;8.54;100.00
40650;BME280;26342;42.826;23.992;2023-04-01T19:55:45;94281.88;;;8.38;100.00
40650;BME280;26342;42.826;23.992;2023-04-01T20:01:28;94292.47;;;8.28;100.00
40650;BME280;26342;42.826;23.992;2023-04-01T20:04:03;94308.19;;;8.24;100.00
40650;BME280;26342;42.826;23.992;2023-04-01T20:06:57;94308.44;;;8.28;100.00
40650;BME280;26342;42.826;23.992;2023-04-01T20:14:57;94310.56;;;8.10;100.00
40650;BME280;26342;42.826;23.992;2023-04-01T20:17:42;94319.06;;;8.02;100.00
40650;BME280;26342;42.826;23.992;2023-04-01T20:28:08;94303.09;;;7.36;100.00
40650;BME280;26342;42.826;23.992;2023-04-01T20:42:27;94332.81;;;7.48;100.00
40650;BME280;26342;42.826;23.992;2023-04-01T20:50:51;94330.50;;;7.67;100.00
40650;BME280;26342;42.826;23.992;2023-04-01T20:53:20;94329.44;;;7.68;100.00
40650;BME280;26342;42.826;23.992;2023-04-01T20:58:49;94330.75;;;7.81;100.00
40650;BME280;26342;42.826;23.992;2023-04-01T21:01:38;94343.50;;;7.89;100.00
40650;BME280;26342;42.826;23.992;2023-04-01T21:15:46;94361.06;;;8.00;100.00
40650;BME280;26342;42.826;23.992;2023-04-01T21:18:55;94366.34;;;8.05;100.00
40650;BME280;26342;42.826;23.992;2023-04-01T21:34:42;94370.88;;;8.10;100.00
40650;BME280;26342;42.826;23.992;2023-04-01T21:48:07;94370.09;;;8.55;100.00
40650;BME280;26342;42.826;23.992;2023-04-01T21:50:50;94368.00;;;8.47;100.00
40650;BME280;26342;42.826;23.992;2023-04-01T21:56:49;94365.31;;;8.37;100.00
40650;BME280;26342;42.826;23.992;2023-04-01T21:59:31;94351.50;;;8.40;100.00
40650;BME280;26342;42.826;23.992;2023-04-01T22:05:13;94358.66;;;8.34;100.00
40650;BME280;26342;42.826;23.992;2023-04-01T22:10:54;94359.72;;;8.13;100.00
40650;BME280;26342;42.826;23.992;2023-04-01T22:13:41;94358.94;;;8.02;100.00
40650;BME280;26342;42.826;23.992;2023-04-01T22:16:27;94370.06;;;7.69;100.00
40650;BME280;26342;42.826;23.992;2023-04-01T22:19:03;94360.41;;;7.42;100.00
40650;BME280;26342;42.826;23.992;2023-04-01T22:21:44;94361.44;;;7.31;100.00
40650;BME280;26342;42.826;23.992;2023-04-01T22:30:06;94358.91;;;6.94;100.00
40650;BME280;26342;42.826;23.992;2023-04-01T22:32:40;94353.88;;;6.87;100.00
40650;BME280;26342;42.826;23.992;2023-04-01T22:35:13;94350.13;;;6.83;100.00
40650;BME280;26342;42.826;23.992;2023-04-01T22:42:52;94359.75;;;6.99;100.00
40650;BME280;26342;42.826;23.992;2023-04-01T22:45:39;94351.03;;;7.09;100.00
40650;BME280;26342;42.826;23.992;2023-04-01T22:48:23;94354.50;;;7.15;100.00
40650;BME280;26342;42.826;23.992;2023-04-01T22:53:51;94359.28;;;7.13;100.00
40650;BME280;26342;42.826;23.992;2023-04-01T22:56:25;94360.06;;;7.18;100.00
40650;BME280;26342;42.826;23.992;2023-04-01T23:01:35;94348.66;;;7.13;100.00
40650;BME280;26342;42.826;23.992;2023-04-01T23:04:04;94346.81;;;7.18;100.00
40650;BME280;26342;42.826;23.992;2023-04-01T23:06:35;94349.97;;;7.10;100.00
40650;BME280;26342;42.826;23.992;2023-04-01T23:17:12;94338.94;;;7.49;100.00
40650;BME280;26342;42.826;23.992;2023-04-01T23:22:31;94363.06;;;7.37;100.00
40650;BME280;26342;42.826;23.992;2023-04-01T23:28:01;94370.41;;;7.15;100.00
40650;BME280;26342;42.826;23.992;2023-04-01T23:33:24;94381.72;;;6.90;100.00
40650;BME280;26342;42.826;23.992;2023-04-01T23:38:25;94379.28;;;6.83;100.00
40650;BME280;26342;42.826;23.992;2023-04-01T23:40:53;94389.66;;;6.90;100.00
40650;BME280;26342;42.826;23.992;2023-04-01T23:43:25;94382.72;;;6.84;100.00